Jackson, MI (49201)

2:58 PM EDT on September 01, 2014 (GMT -0400)
Cork 'n Cap | Change Station
CLOSE
Current Station
Personal Weather Station
Location: Jackson, MI
Elevation: 978 ft
Nearby Weather Stations

Elev 978 ft 42.26 °N, 84.42 °W | Updated 22 seconds ago

Scattered Clouds
Scattered Clouds
85.3 °F
Feels Like 89 °F
N
-
Wind Variable Wind from North

Today
High -- | Low -- °F
--% Chance of Precip.
Yesterday
High -- | Low -- °F
Precip. -- in
7:02 AM 8:11 PM
Waxing Crescent, 43% visible
Pressure 29.80 in
Visibility 10.0 miles
Clouds Few 2700 ft
Scattered Clouds 3400 ft
Heat Index 89 °F
Dew Point 70 °F
Humidity 58%
Rainfall -999.00 in
Snow Depth Not available.
UV 7 out of 12
Pollen 8.70 out of 12
Ozone Good
PM2.5 Good
Flu Activity Not available.
SPECI KJXN 011817Z 20016G26KT 10SM FEW027 SCT034 27/21 A2980 RMK AO2 PK WND 20026/1817 T02720211

More Conditions Fewer Conditions

Pressure 29.80 in
Visibility 10.0 miles
Clouds Few 2700 ft
Scattered Clouds 3400 ft
Heat Index 89 °F
Dew Point 70 °F
Humidity 58%
Rainfall -999.00 in
Snow Depth Not available.
UV 7 out of 12
Pollen 8.70 out of 12
Ozone Good
PM2.5 Good
Flu Activity Not available.
SPECI KJXN 011817Z 20016G26KT 10SM FEW027 SCT034 27/21 A2980 RMK AO2 PK WND 20026/1817 T02720211

More Conditions Fewer Conditions

10-Day Weather Forecast

Almanac

Astronomy

Sep. 01, 2014 Rise Set
Actual Time 7:02 AM EDT 8:11 PM EDT
Civil Twilight 6:33 AM EDT 8:40 PM EDT
Nautical Twilight 5:59 AM EDT 9:14 PM EDT
Astronomical Twilight 5:23 AM EDT 9:50 PM EDT
Moon 1:55 PM EDT No Moon Set
Length of Visible Light 14h 06m
Length of Day
13h 08m
Tomorrow will be 2m 45s shorter.
Waxing Crescent, 43% of the Moon is Illuminated
Today
Waxing Crescent
Sep 2
First Quarter
Sep 8
Full
Sep 15
Last Quarter
Sep 24
New

Today's Extremes

State Highs State Lows

Community

WunderPhotos

Upload Photos

1,749,359 photos uploaded!

Nearby

Air Quality

  Air Quality AQ Index Pollutant
Yesterday Good
PM2.5
Yesterday Good
OZONE
Current Good
PM2.5
Current Good
OZONE
Monday Good
OZONE
Monday Good
PM2.5
Tuesday Good
OZONE
Tuesday Good
PM2.5

Snow Depth

Station Depth Elevation
No new snow has been reported.

Earthquake Activity

City Distance Mag. Time & Date
No recent earthquake activity has been reported nearby.
Minimum magnitude displayed is 2.5.

Coastal Water Temperatures

Place Temperature
No Stations Reporting

Nearby Weather Stations